Time;durP1;ratioP1;P1;durP2;ratioP2;P2;SDS_P1;SDS_P2;PMS_P1;PMS_P2;Temp;Humidity;BMP_temperature;BMP_pressure;BME280_temperature;BME280_humidity;BME280_pressure;Samples;Min_cycle;Max_cycle;Signal;HPM_P1;HPM_P2
2021/01/27 00:02:16;;;;;;;11.88;2.60;;;24.20;87.40;;;;;;5051573;28;20029;-59
2021/01/27 00:04:44;;;;;;;15.35;3.28;;;24.20;86.80;;;;;;5050502;28;20032;-60
2021/01/27 00:07:11;;;;;;;13.70;3.15;;;24.10;87.50;;;;;;5050845;28;20021;-58
2021/01/27 00:09:39;;;;;;;13.50;3.38;;;24.20;87.90;;;;;;5049660;28;20025;-55
2021/01/27 00:12:06;;;;;;;12.38;2.72;;;24.30;86.70;;;;;;5051360;28;20088;-60
2021/01/27 00:14:34;;;;;;;17.38;3.70;;;24.20;87.90;;;;;;5051537;28;20384;-60
2021/01/27 00:17:01;;;;;;;14.30;3.20;;;24.20;87.10;;;;;;5051301;28;20147;-56
2021/01/27 00:19:29;;;;;;;21.90;4.13;;;24.30;85.20;;;;;;5050515;28;20029;-62
2021/01/27 00:21:56;;;;;;;15.05;2.75;;;24.10;86.10;;;;;;5050868;28;20044;-54
2021/01/27 00:24:23;;;;;;;20.10;3.33;;;24.10;86.10;;;;;;5051292;28;20474;-56
2021/01/27 00:26:51;;;;;;;18.40;2.85;;;24.00;86.60;;;;;;5051208;28;20057;-59
2021/01/27 00:29:18;;;;;;;32.75;5.65;;;24.00;87.20;;;;;;5050927;28;20041;-58
2021/01/27 00:31:45;;;;;;;17.27;2.92;;;24.20;86.90;;;;;;5050935;28;20048;-61
2021/01/27 00:34:13;;;;;;;16.35;3.15;;;24.20;86.10;;;;;;5050712;28;20102;-60
2021/01/27 00:36:40;;;;;;;16.23;4.10;;;24.10;87.00;;;;;;5050082;28;20040;-56
2021/01/27 00:39:07;;;;;;;11.55;3.10;;;24.20;86.10;;;;;;5049993;28;20036;-60
2021/01/27 00:41:35;;;;;;;14.32;3.33;;;24.30;85.40;;;;;;5050086;28;20067;-58
2021/01/27 00:44:03;;;;;;;17.65;3.88;;;24.40;85.60;;;;;;5051104;28;20029;-59
2021/01/27 00:46:30;;;;;;;17.35;3.33;;;24.50;84.30;;;;;;5051117;28;20472;-60
2021/01/27 00:48:57;;;;;;;20.55;2.97;;;24.50;84.50;;;;;;5051116;28;20025;-61
2021/01/27 00:51:26;;;;;;;18.15;3.10;;;24.50;85.00;;;;;;5050727;28;20081;-56
2021/01/27 00:53:54;;;;;;;14.85;3.47;;;24.40;83.40;;;;;;5050791;28;20037;-62
2021/01/27 00:56:21;;;;;;;11.40;2.80;;;24.50;85.20;;;;;;5051105;28;20472;-58
2021/01/27 00:58:50;;;;;;;12.05;2.90;;;24.70;84.20;;;;;;5050542;28;20025;-55
2021/01/27 01:01:17;;;;;;;19.65;4.60;;;24.70;83.20;;;;;;5050501;28;20025;-60
2021/01/27 01:03:44;;;;;;;16.55;4.28;;;24.80;83.40;;;;;;5049194;28;20420;-55
2021/01/27 01:06:12;;;;;;;11.85;3.08;;;24.90;82.20;;;;;;5050943;28;20035;-62
2021/01/27 01:08:39;;;;;;;22.27;4.55;;;25.00;82.30;;;;;;5050873;28;20026;-53
2021/01/27 01:11:07;;;;;;;13.80;3.30;;;25.10;81.20;;;;;;5049949;28;20033;-62
2021/01/27 01:13:34;;;;;;;9.95;2.58;;;25.20;81.50;;;;;;5038832;28;20025;-55
2021/01/27 01:16:02;;;;;;;15.35;3.15;;;25.20;81.60;;;;;;5046405;28;20480;-58
2021/01/27 01:18:29;;;;;;;8.88;2.95;;;25.30;81.20;;;;;;5049608;28;20021;-64
2021/01/27 01:20:58;;;;;;;10.52;3.00;;;25.40;81.20;;;;;;5049542;28;20366;-63
2021/01/27 01:23:26;;;;;;;8.88;2.70;;;25.40;80.90;;;;;;5050438;28;20032;-56
2021/01/27 01:25:53;;;;;;;18.40;3.90;;;25.60;80.70;;;;;;5048823;28;20025;-62
2021/01/27 01:28:21;;;;;;;19.33;3.40;;;25.60;80.60;;;;;;5051286;28;20056;-59
2021/01/27 01:30:49;;;;;;;13.93;3.05;;;25.70;80.30;;;;;;5050244;28;20037;-60
2021/01/27 01:33:18;;;;;;;10.52;2.95;;;25.70;80.00;;;;;;5050458;28;20040;-59
2021/01/27 01:35:47;;;;;;;8.95;2.53;;;25.80;80.00;;;;;;5047344;28;20041;-61
2021/01/27 01:38:15;;;;;;;11.73;3.35;;;25.90;80.00;;;;;;5050948;28;20525;-59
2021/01/27 01:40:54;;;;;;;11.00;3.33;;;25.90;79.60;;;;;;5049206;28;20487;-62
2021/01/27 01:43:26;;;;;;;15.10;3.55;;;26.00;79.20;;;;;;5050727;28;20024;-64
2021/01/27 01:46:04;;;;;;;11.02;3.50;;;26.00;78.90;;;;;;5044924;28;20040;-59
2021/01/27 01:48:37;;;;;;;11.55;3.38;;;26.00;78.70;;;;;;5050744;28;20032;-57
2021/01/27 01:51:16;;;;;;;15.60;3.17;;;26.10;78.60;;;;;;5050183;28;20044;-54
2021/01/27 01:53:46;;;;;;;13.20;3.22;;;26.10;78.40;;;;;;5050711;28;20060;-59
2021/01/27 01:56:17;;;;;;;8.80;3.22;;;26.20;78.20;;;;;;5046959;28;20033;-60
2021/01/27 01:58:45;;;;;;;9.45;2.60;;;26.20;78.10;;;;;;5050279;28;20060;-58
2021/01/27 02:01:14;;;;;;;10.68;2.67;;;26.20;78.00;;;;;;5050275;28;20492;-58
2021/01/27 02:03:44;;;;;;;13.10;2.88;;;26.30;77.80;;;;;;5047412;28;20075;-57
2021/01/27 02:06:12;;;;;;;12.38;3.60;;;26.30;77.70;;;;;;5043188;28;20524;-59
2021/01/27 02:09:00;;;;;;;11.70;3.60;;;26.30;77.90;;;;;;5051351;28;20043;-61
2021/01/27 02:11:45;;;;;;;9.93;3.15;;;26.40;77.70;;;;;;5053364;28;20500;-60
2021/01/27 02:15:09;;;;;;;12.32;3.20;;;26.30;77.50;;;;;;5052593;28;20025;-56
2021/01/27 02:17:54;;;;;;;15.55;4.03;;;26.40;77.80;;;;;;4995132;28;20022;-55
2021/01/27 02:20:53;;;;;;;11.32;3.00;;;26.40;77.70;;;;;;5010684;28;20083;-61
2021/01/27 02:23:56;;;;;;;12.90;3.65;;;26.40;77.50;;;;;;5032019;28;20091;-61
2021/01/27 02:26:41;;;;;;;10.80;2.80;;;26.40;77.50;;;;;;5032838;28;20034;-55
2021/01/27 02:29:38;;;;;;;13.00;2.72;;;26.40;77.50;;;;;;5032752;28;20060;-55
2021/01/27 02:32:29;;;;;;;12.32;2.88;;;26.40;77.40;;;;;;5045639;28;20056;-53
2021/01/27 02:35:06;;;;;;;17.80;3.90;;;26.40;77.20;;;;;;5051940;28;20112;-60
2021/01/27 02:37:59;;;;;;;10.75;3.33;;;26.40;77.10;;;;;;5053391;28;20029;-60
2021/01/27 02:40:55;;;;;;;13.32;3.35;;;26.30;77.20;;;;;;5052954;28;20036;-63
2021/01/27 02:43:24;;;;;;;9.80;3.60;;;26.30;77.20;;;;;;5033065;28;20037;-63
2021/01/27 02:46:19;;;;;;;10.73;2.92;;;26.30;77.20;;;;;;5031597;28;20026;-62
2021/01/27 02:48:58;;;;;;;7.72;2.83;;;26.30;77.20;;;;;;5032564;28;20507;-63
2021/01/27 02:51:39;;;;;;;9.07;2.83;;;26.30;77.00;;;;;;5039698;28;20041;-64
2021/01/27 02:54:15;;;;;;;10.48;2.83;;;26.30;76.90;;;;;;5052611;28;20073;-61
2021/01/27 02:56:58;;;;;;;9.13;2.97;;;26.30;77.00;;;;;;5052634;28;20112;-61
2021/01/27 02:59:52;;;;;;;8.60;2.38;;;26.30;77.00;;;;;;5052335;28;20502;-63
2021/01/27 03:02:22;;;;;;;7.60;2.72;;;26.20;76.90;;;;;;5029736;28;20051;-61
2021/01/27 03:05:12;;;;;;;11.55;3.28;;;26.30;76.90;;;;;;5052720;28;20025;-63
2021/01/27 03:07:42;;;;;;;7.65;2.78;;;26.30;76.80;;;;;;5049871;28;20033;-60
2021/01/27 03:10:36;;;;;;;9.57;2.95;;;26.20;76.70;;;;;;5052244;28;20479;-65
2021/01/27 03:13:03;;;;;;;9.30;2.70;;;26.20;76.70;;;;;;5051909;28;20128;-58
2021/01/27 03:15:31;;;;;;;9.70;2.75;;;26.20;76.80;;;;;;5052109;28;20036;-58
2021/01/27 03:18:01;;;;;;;11.98;3.08;;;26.20;76.60;;;;;;5051953;28;20108;-61
2021/01/27 03:20:38;;;;;;;11.35;3.05;;;26.10;76.50;;;;;;5052023;28;20101;-61
2021/01/27 03:23:22;;;;;;;11.73;2.38;;;26.10;76.40;;;;;;5051421;28;20041;-60
2021/01/27 03:26:05;;;;;;;7.82;2.60;;;26.10;76.50;;;;;;5052109;28;20464;-59
2021/01/27 03:28:42;;;;;;;8.27;2.90;;;26.10;76.40;;;;;;5052241;28;20473;-59
2021/01/27 03:31:11;;;;;;;9.88;3.08;;;26.10;76.50;;;;;;5051860;28;20032;-61
2021/01/27 03:33:55;;;;;;;13.68;3.67;;;26.10;76.40;;;;;;5051687;28;20094;-61
2021/01/27 03:36:24;;;;;;;12.52;2.67;;;26.10;77.60;;;;;;5042583;28;20033;-63
2021/01/27 03:38:54;;;;;;;11.68;3.53;;;26.10;77.60;;;;;;5048109;28;20036;-64
2021/01/27 03:41:39;;;;;;;9.63;2.97;;;26.10;77.60;;;;;;5047807;28;20102;-64
2021/01/27 03:44:11;;;;;;;12.52;3.20;;;26.10;77.50;;;;;;5047496;28;20029;-64
2021/01/27 03:47:00;;;;;;;11.95;2.75;;;26.10;77.50;;;;;;5043117;28;20063;-59
2021/01/27 03:49:38;;;;;;;12.18;3.30;;;26.00;77.30;;;;;;5047509;28;20032;-60
2021/01/27 03:52:54;;;;;;;10.70;3.30;;;26.00;77.50;;;;;;5046412;28;20040;-61
2021/01/27 03:55:50;;;;;;;23.80;4.03;;;26.00;77.90;;;;;;5024065;28;20052;-58
2021/01/27 03:58:30;;;;;;;14.00;3.42;;;26.00;77.80;;;;;;4987277;28;20052;-61
2021/01/27 04:01:07;;;;;;;8.88;3.03;;;26.00;77.70;;;;;;5044030;28;20033;-62
2021/01/27 04:03:35;;;;;;;10.70;2.50;;;26.00;77.60;;;;;;5043508;28;20039;-63
2021/01/27 04:06:03;;;;;;;11.32;3.28;;;26.00;77.70;;;;;;5048035;28;20094;-62
2021/01/27 04:08:31;;;;;;;11.88;2.97;;;26.00;77.70;;;;;;5048300;28;20075;-56
2021/01/27 04:11:01;;;;;;;11.15;2.63;;;26.00;77.70;;;;;;5047276;28;20138;-62
2021/01/27 04:13:29;;;;;;;8.30;2.60;;;26.00;77.70;;;;;;5043639;28;20033;-63
2021/01/27 04:15:57;;;;;;;7.72;2.67;;;26.00;77.60;;;;;;5048166;28;20163;-64
2021/01/27 04:18:25;;;;;;;12.70;3.22;;;26.00;77.70;;;;;;5047503;28;20017;-62
2021/01/27 04:20:56;;;;;;;9.18;3.05;;;26.00;77.70;;;;;;5047785;28;20083;-61
2021/01/27 04:23:24;;;;;;;11.30;3.33;;;26.00;77.60;;;;;;5044104;28;20425;-61
2021/01/27 04:25:52;;;;;;;10.20;2.58;;;26.00;77.60;;;;;;5047773;28;20071;-61
2021/01/27 04:28:19;;;;;;;14.10;3.88;;;25.90;77.50;;;;;;5046013;28;20450;-60
2021/01/27 04:30:47;;;;;;;10.82;3.63;;;26.00;77.60;;;;;;5047841;28;20032;-62
2021/01/27 04:33:14;;;;;;;9.23;2.97;;;26.00;77.70;;;;;;5043492;28;20447;-57
2021/01/27 04:35:42;;;;;;;13.98;3.65;;;26.00;77.70;;;;;;5048738;28;20021;-59
2021/01/27 04:38:09;;;;;;;10.27;3.40;;;26.00;77.70;;;;;;5048757;28;20028;-53
2021/01/27 04:40:41;;;;;;;10.68;2.90;;;26.00;77.70;;;;;;5047626;28;20029;-63
2021/01/27 04:43:25;;;;;;;7.90;2.20;;;25.90;77.50;;;;;;5043362;28;20024;-59
2021/01/27 04:46:19;;;;;;;9.68;2.45;;;26.00;78.20;;;;;;5048335;28;20029;-58
2021/01/27 04:49:20;;;;;;;9.98;2.95;;;25.90;77.40;;;;;;5046125;28;20025;-59
2021/01/27 04:52:12;;;;;;;8.40;3.10;;;25.90;77.50;;;;;;5045671;28;20044;-58
2021/01/27 04:54:57;;;;;;;13.50;3.35;;;25.90;77.50;;;;;;5049824;28;20032;-59
2021/01/27 04:57:25;;;;;;;7.47;2.58;;;25.90;77.70;;;;;;5051971;28;20499;-54
2021/01/27 05:00:04;;;;;;;12.50;3.35;;;25.90;78.00;;;;;;5051402;28;20032;-60
2021/01/27 05:02:51;;;;;;;10.73;2.80;;;25.90;78.00;;;;;;5047271;28;20021;-57
2021/01/27 05:05:37;;;;;;;9.05;2.88;;;25.90;78.10;;;;;;5049587;28;20033;-55
2021/01/27 05:08:29;;;;;;;9.57;3.13;;;25.80;77.90;;;;;;5051076;28;20061;-59
2021/01/27 05:11:05;;;;;;;11.40;3.13;;;25.80;78.00;;;;;;5048661;28;20033;-63
2021/01/27 05:13:35;;;;;;;8.82;2.50;;;25.80;78.20;;;;;;5046820;28;20029;-63
2021/01/27 05:16:26;;;;;;;8.18;2.55;;;25.80;78.00;;;;;;5051200;28;20045;-58
2021/01/27 05:19:00;;;;;;;10.98;4.03;;;25.80;77.70;;;;;;5051273;28;20120;-60
2021/01/27 05:21:35;;;;;;;13.10;4.35;;;25.30;78.00;;;;;;5054807;28;20025;-58
2021/01/27 05:24:03;;;;;;;21.20;8.82;;;24.90;79.40;;;;;;5054431;28;20021;-61
2021/01/27 05:27:04;;;;;;;19.40;8.60;;;24.80;79.60;;;;;;5055275;28;20037;-58
2021/01/27 05:29:40;;;;;;;17.25;8.10;;;24.50;81.80;;;;;;5053421;28;20498;-60
2021/01/27 05:32:19;;;;;;;21.63;7.60;;;24.40;81.40;;;;;;5053566;28;20194;-61
2021/01/27 05:34:57;;;;;;;22.40;9.15;;;24.40;82.20;;;;;;5054136;28;20553;-61
2021/01/27 05:37:34;;;;;;;13.63;6.10;;;24.30;82.70;;;;;;5053678;28;20045;-61
2021/01/27 05:40:17;;;;;;;21.63;11.63;;;24.20;83.40;;;;;;5054491;28;20113;-60
2021/01/27 05:42:45;;;;;;;21.45;7.07;;;24.20;83.70;;;;;;5053710;28;20116;-60
2021/01/27 05:45:32;;;;;;;20.20;7.35;;;24.10;83.10;;;;;;5050997;28;20025;-60
2021/01/27 05:48:27;;;;;;;20.52;8.50;;;23.90;83.40;;;;;;5053226;28;20113;-62
2021/01/27 05:51:02;;;;;;;32.35;19.27;;;23.90;83.20;;;;;;5053770;28;20116;-57
2021/01/27 05:53:31;;;;;;;32.28;16.48;;;24.00;83.90;;;;;;5043077;28;20029;-60
2021/01/27 05:56:18;;;;;;;33.25;15.20;;;24.10;83.40;;;;;;5048360;28;20867;-55
2021/01/27 05:59:20;;;;;;;;;;;;;;;;;;;;;
2021/01/27 06:01:49;;;;;;;30.52;13.77;;;24.30;83.50;;;;;;5046903;28;20456;-59
2021/01/27 06:04:21;;;;;;;24.67;12.43;;;24.40;83.50;;;;;;5047570;28;20049;-54
2021/01/27 06:06:51;;;;;;;24.55;13.75;;;24.50;83.20;;;;;;5047315;28;20021;-55
2021/01/27 06:09:30;;;;;;;31.98;10.20;;;24.50;83.30;;;;;;5042512;28;20247;-52
2021/01/27 06:12:02;;;;;;;22.85;7.03;;;24.50;83.40;;;;;;5045462;28;20077;-53
2021/01/27 06:14:30;;;;;;;20.25;7.28;;;24.50;83.40;;;;;;5046360;28;20017;-64
2021/01/27 06:16:57;;;;;;;18.75;6.18;;;24.60;83.40;;;;;;5046003;28;20048;-61
2021/01/27 06:19:26;;;;;;;20.80;6.30;;;24.70;83.30;;;;;;5046069;28;20057;-60
2021/01/27 06:22:35;;;;;;;17.13;5.07;;;24.70;82.80;;;;;;5048321;28;20442;-55
2021/01/27 06:25:23;;;;;;;17.45;4.53;;;24.70;83.30;;;;;;5046951;28;20037;-56
2021/01/27 06:28:12;;;;;;;17.35;5.70;;;24.70;83.20;;;;;;5047440;28;20160;-57
2021/01/27 06:30:47;;;;;;;17.50;4.70;;;24.70;82.90;;;;;;5051739;28;20472;-61
2021/01/27 06:33:51;;;;;;;27.50;4.35;;;24.70;83.30;;;;;;5052582;28;20065;-57
2021/01/27 06:36:31;;;;;;;20.92;4.70;;;24.80;83.10;;;;;;5051521;28;20048;-63
2021/01/27 06:39:31;;;;;;;20.88;5.13;;;24.80;83.40;;;;;;5052400;28;20099;-64
2021/01/27 06:42:32;;;;;;;27.67;5.93;;;24.80;83.80;;;;;;5052634;28;20025;-62
2021/01/27 06:45:20;;;;;;;29.25;5.00;;;24.80;84.00;;;;;;5052291;28;20079;-62
2021/01/27 06:48:06;;;;;;;22.50;5.43;;;24.70;84.00;;;;;;5052460;28;20120;-59
2021/01/27 06:51:15;;;;;;;19.85;5.93;;;24.70;84.10;;;;;;5052127;28;20039;-57
2021/01/27 06:54:07;;;;;;;23.45;4.68;;;24.70;84.40;;;;;;5052480;28;20040;-57
2021/01/27 06:56:43;;;;;;;23.50;6.07;;;24.60;83.90;;;;;;5052389;28;20496;-55
2021/01/27 06:59:43;;;;;;;21.00;6.07;;;24.60;84.90;;;;;;5052095;28;20145;-59
2021/01/27 07:02:34;;;;;;;16.65;4.10;;;24.60;84.80;;;;;;5052052;28;20025;-61
2021/01/27 07:05:10;;;;;;;20.10;4.55;;;24.50;85.30;;;;;;5051455;28;20491;-60
2021/01/27 07:08:08;;;;;;;21.92;4.35;;;24.50;84.80;;;;;;5051805;28;20025;-62
2021/01/27 07:10:49;;;;;;;27.15;5.05;;;24.50;85.00;;;;;;5051970;28;20037;-59
2021/01/27 07:13:49;;;;;;;21.27;4.50;;;24.50;85.00;;;;;;5051944;28;20044;-60
2021/01/27 07:16:35;;;;;;;11.10;3.05;;;24.40;85.00;;;;;;5052184;28;20452;-60
2021/01/27 07:19:11;;;;;;;13.25;3.55;;;24.40;85.20;;;;;;5051019;28;20094;-59
2021/01/27 07:21:44;;;;;;;18.48;3.42;;;24.30;85.00;;;;;;5051372;28;20017;-55
2021/01/27 07:24:24;;;;;;;13.02;3.38;;;24.30;85.40;;;;;;5050549;28;20021;-59
2021/01/27 07:27:01;;;;;;;11.98;3.17;;;24.30;85.40;;;;;;5034081;28;20040;-64
2021/01/27 07:29:39;;;;;;;10.80;3.70;;;24.30;85.50;;;;;;5047838;28;20029;-62
2021/01/27 07:32:30;;;;;;;17.50;3.72;;;24.20;85.50;;;;;;5047810;28;20060;-60
2021/01/27 07:35:20;;;;;;;9.95;3.35;;;24.30;85.80;;;;;;5048592;28;20459;-57
2021/01/27 07:38:05;;;;;;;11.57;3.38;;;24.30;85.70;;;;;;5051376;28;20475;-58
2021/01/27 07:41:14;;;;;;;15.85;3.65;;;24.20;86.00;;;;;;5051572;28;20125;-57
2021/01/27 07:43:50;;;;;;;11.32;3.20;;;24.10;86.80;;;;;;5029756;28;20067;-62
2021/01/27 07:46:27;;;;;;;14.05;2.90;;;24.10;86.80;;;;;;5029339;28;20164;-62
2021/01/27 07:49:04;;;;;;;18.13;3.72;;;23.90;87.20;;;;;;5043725;28;20041;-61
2021/01/27 07:51:37;;;;;;;11.90;3.05;;;23.90;87.90;;;;;;5051141;28;20389;-61
2021/01/27 07:54:14;;;;;;;16.90;3.33;;;23.80;88.60;;;;;;5032026;28;20532;-60
2021/01/27 07:56:50;;;;;;;10.35;2.97;;;23.80;88.10;;;;;;5032184;28;20036;-58
2021/01/27 07:59:23;;;;;;;14.82;3.05;;;23.80;89.70;;;;;;5031242;28;20025;-58
2021/01/27 08:02:11;;;;;;;15.45;3.00;;;23.80;89.40;;;;;;5031000;28;20037;-64
2021/01/27 08:04:44;;;;;;;20.08;3.85;;;23.90;89.00;;;;;;5031771;28;20109;-57
2021/01/27 08:07:32;;;;;;;16.38;3.63;;;23.80;88.60;;;;;;5031773;28;20465;-61
2021/01/27 08:10:12;;;;;;;12.75;3.33;;;23.80;89.50;;;;;;5044181;28;20021;-61
2021/01/27 08:13:03;;;;;;;16.98;4.38;;;23.70;89.30;;;;;;5046310;28;20072;-59
2021/01/27 08:15:30;;;;;;;19.70;4.15;;;23.80;89.70;;;;;;5046517;28;20030;-58
2021/01/27 08:18:00;;;;;;;20.55;4.85;;;23.70;90.00;;;;;;5048400;28;20475;-60
2021/01/27 08:20:34;;;;;;;15.40;4.50;;;23.80;89.60;;;;;;5047434;28;20037;-64
2021/01/27 08:23:01;;;;;;;19.13;4.90;;;23.90;90.20;;;;;;5044871;28;20021;-59
2021/01/27 08:26:07;;;;;;;19.90;4.80;;;24.00;89.90;;;;;;5045622;28;20045;-58
2021/01/27 08:28:37;;;;;;;21.35;4.43;;;24.00;89.50;;;;;;5029382;28;20041;-55
2021/01/27 08:31:12;;;;;;;26.98;5.15;;;23.90;89.60;;;;;;5029061;28;20117;-53
2021/01/27 08:33:52;;;;;;;32.15;5.13;;;23.80;88.80;;;;;;5039120;28;20037;-58
2021/01/27 08:36:35;;;;;;;22.48;5.35;;;23.80;90.10;;;;;;5052175;28;20491;-55
2021/01/27 08:39:11;;;;;;;24.50;5.95;;;23.70;90.00;;;;;;5051725;28;20938;-50
2021/01/27 08:41:52;;;;;;;20.08;4.82;;;23.70;89.70;;;;;;5051546;28;20455;-56
2021/01/27 08:44:22;;;;;;;20.38;4.35;;;23.60;87.40;;;;;;5049769;28;20039;-58
2021/01/27 08:47:03;;;;;;;25.95;4.35;;;23.50;89.40;;;;;;5055328;28;20021;-60
2021/01/27 08:49:45;;;;;;;16.77;4.60;;;23.60;88.40;;;;;;5054644;28;20021;-59
2021/01/27 08:52:13;;;;;;;26.42;4.20;;;23.80;88.30;;;;;;5055107;28;20139;-60
2021/01/27 08:54:44;;;;;;;24.70;4.90;;;23.70;88.50;;;;;;5055390;28;20025;-60
2021/01/27 08:57:20;;;;;;;20.92;4.95;;;23.70;89.30;;;;;;5055351;28;20032;-60
2021/01/27 09:00:12;;;;;;;26.65;5.15;;;23.60;89.70;;;;;;5054779;28;20040;-61
2021/01/27 09:03:04;;;;;;;16.77;4.30;;;23.70;88.50;;;;;;5055016;28;20021;-58
2021/01/27 09:05:40;;;;;;;18.17;5.07;;;23.70;89.10;;;;;;5055139;28;20476;-60
2021/01/27 09:08:19;;;;;;;22.98;5.10;;;23.70;89.00;;;;;;5055186;28;20033;-58
2021/01/27 09:10:53;;;;;;;18.20;5.32;;;23.70;89.70;;;;;;5054392;28;20022;-59
2021/01/27 09:13:41;;;;;;;18.13;4.45;;;23.70;89.70;;;;;;5054401;28;20029;-60
2021/01/27 09:16:18;;;;;;;21.65;5.95;;;23.80;89.40;;;;;;5054739;28;20029;-56
2021/01/27 09:18:54;;;;;;;17.35;5.30;;;23.70;89.20;;;;;;5054737;28;20041;-59
2021/01/27 09:21:22;;;;;;;16.33;5.07;;;23.70;89.70;;;;;;5054483;28;20082;-59
2021/01/27 09:24:04;;;;;;;20.90;5.22;;;23.60;89.10;;;;;;5054718;28;20028;-60
2021/01/27 09:26:51;;;;;;;21.67;5.05;;;23.60;88.90;;;;;;5054705;28;20096;-57
2021/01/27 09:29:24;;;;;;;15.40;5.13;;;23.60;90.00;;;;;;5053743;28;20045;-61
2021/01/27 09:31:52;;;;;;;22.02;4.95;;;23.60;90.50;;;;;;5054346;28;20061;-59
2021/01/27 09:34:30;;;;;;;14.40;4.68;;;23.60;90.50;;;;;;5054113;28;20096;-62
2021/01/27 09:37:11;;;;;;;14.80;4.65;;;23.60;90.10;;;;;;5054555;28;20033;-60
2021/01/27 09:39:54;;;;;;;17.05;4.93;;;23.50;90.30;;;;;;5054397;28;20025;-62
2021/01/27 09:42:24;;;;;;;16.63;4.80;;;23.60;90.20;;;;;;5053740;28;20380;-60
2021/01/27 09:44:59;;;;;;;15.80;4.68;;;23.50;88.80;;;;;;5054029;28;20059;-62
2021/01/27 09:47:29;;;;;;;11.60;4.57;;;23.50;89.20;;;;;;5053891;28;20017;-61
2021/01/27 09:49:59;;;;;;;15.20;4.78;;;23.50;88.60;;;;;;5052889;28;20068;-63
2021/01/27 09:52:29;;;;;;;11.68;4.20;;;23.50;89.30;;;;;;5053559;28;20037;-63
2021/01/27 09:55:10;;;;;;;12.45;4.22;;;23.50;88.70;;;;;;5054449;28;20021;-62
2021/01/27 09:57:40;;;;;;;13.45;3.92;;;23.60;88.20;;;;;;5054132;28;20029;-61
2021/01/27 10:00:24;;;;;;;18.35;4.35;;;23.60;87.60;;;;;;5054113;28;20066;-62
2021/01/27 10:02:51;;;;;;;18.02;4.20;;;23.70;88.50;;;;;;5046098;28;20475;-64
2021/01/27 10:05:39;;;;;;;13.40;4.35;;;23.70;88.80;;;;;;5047269;28;20036;-57
2021/01/27 10:08:28;;;;;;;14.75;5.38;;;23.80;88.60;;;;;;5046450;28;20855;-56
2021/01/27 10:11:12;;;;;;;22.35;5.88;;;23.80;88.20;;;;;;5049478;28;20530;-62
2021/01/27 10:13:42;;;;;;;20.13;5.80;;;23.90;88.70;;;;;;5049075;28;20111;-56
2021/01/27 10:16:15;;;;;;;24.23;6.75;;;23.90;87.90;;;;;;5047881;28;20039;-59
2021/01/27 10:18:44;;;;;;;30.85;9.80;;;24.00;87.60;;;;;;5047392;28;20033;-58
2021/01/27 10:21:16;;;;;;;33.35;10.05;;;24.00;87.60;;;;;;5048847;28;20039;-60
2021/01/27 10:23:46;;;;;;;30.45;9.95;;;24.00;87.50;;;;;;5047710;28;20108;-62
2021/01/27 10:26:41;;;;;;;27.42;8.65;;;24.00;87.00;;;;;;5047460;28;20101;-59
2021/01/27 10:29:27;;;;;;;28.52;8.48;;;24.00;86.60;;;;;;5047550;28;20451;-59
2021/01/27 10:31:56;;;;;;;43.78;10.00;;;24.00;86.60;;;;;;5049842;28;20155;-61
2021/01/27 10:37:46;;;;;;;27.23;8.30;;;24.10;86.60;;;;;;5049232;28;20079;-62
2021/01/27 10:40:30;;;;;;;23.25;7.40;;;24.10;86.30;;;;;;5045560;28;20032;-59
2021/01/27 10:43:00;;;;;;;25.90;8.00;;;24.10;86.20;;;;;;5050589;28;20040;-61
2021/01/27 10:45:39;;;;;;;27.65;8.13;;;24.10;86.10;;;;;;5049084;28;20086;-64
2021/01/27 10:48:13;;;;;;;28.42;8.15;;;24.10;85.90;;;;;;5047313;28;20414;-56
2021/01/27 10:50:47;;;;;;;23.98;7.30;;;24.10;85.80;;;;;;5042925;28;20033;-64
2021/01/27 10:53:17;;;;;;;20.55;7.10;;;24.10;85.70;;;;;;5050455;28;21446;-65
2021/01/27 10:55:56;;;;;;;18.15;5.78;;;24.10;85.60;;;;;;5050758;28;20017;-61
2021/01/27 10:58:26;;;;;;;26.33;7.53;;;24.20;85.40;;;;;;5048555;28;20029;-62
2021/01/27 11:00:53;;;;;;;19.90;6.35;;;24.20;85.40;;;;;;5045870;28;20029;-52
2021/01/27 11:03:21;;;;;;;26.15;7.07;;;24.20;85.20;;;;;;5048477;28;20021;-55
2021/01/27 11:05:49;;;;;;;19.52;6.45;;;24.20;85.20;;;;;;5050003;28;20451;-62
2021/01/27 11:08:27;;;;;;;19.83;6.80;;;24.20;85.10;;;;;;5048521;28;20889;-55
2021/01/27 11:11:00;;;;;;;19.00;6.13;;;24.20;85.00;;;;;;5046063;28;20171;-54
2021/01/27 11:13:30;;;;;;;20.35;6.38;;;24.20;85.00;;;;;;5048385;28;20120;-64
2021/01/27 11:15:58;;;;;;;16.25;5.85;;;24.20;84.80;;;;;;5050131;28;20379;-60
2021/01/27 11:18:25;;;;;;;24.17;6.82;;;24.20;84.80;;;;;;5049405;28;20033;-52
2021/01/27 11:20:53;;;;;;;21.60;6.70;;;24.20;84.60;;;;;;5044748;28;20020;-60
2021/01/27 11:23:21;;;;;;;16.50;5.85;;;24.20;84.50;;;;;;5049135;28;20040;-60
2021/01/27 11:25:53;;;;;;;19.80;6.45;;;24.20;84.60;;;;;;5048184;28;20112;-62
2021/01/27 11:28:25;;;;;;;20.13;6.45;;;24.20;84.50;;;;;;5046254;28;20479;-64
2021/01/27 11:30:53;;;;;;;19.48;5.97;;;24.20;84.40;;;;;;5042925;28;20507;-59
2021/01/27 11:33:21;;;;;;;24.38;7.15;;;24.20;84.40;;;;;;5049094;28;20037;-61
2021/01/27 11:35:48;;;;;;;16.08;5.68;;;24.20;84.30;;;;;;5047910;28;20025;-61
2021/01/27 11:38:16;;;;;;;17.50;5.13;;;24.20;84.20;;;;;;5046983;28;20064;-57
2021/01/27 11:40:44;;;;;;;19.88;6.57;;;24.30;84.00;;;;;;5044710;28;20028;-57
2021/01/27 11:43:11;;;;;;;15.25;6.15;;;24.30;84.10;;;;;;5049158;28;20035;-57
2021/01/27 11:45:39;;;;;;;14.73;5.80;;;24.30;84.00;;;;;;5048497;28;20073;-60
2021/01/27 11:48:06;;;;;;;16.92;5.35;;;24.20;83.90;;;;;;5049199;28;20096;-59
2021/01/27 11:50:34;;;;;;;12.73;4.82;;;24.30;83.90;;;;;;5045941;28;20029;-59
2021/01/27 11:53:01;;;;;;;18.33;5.68;;;24.30;83.90;;;;;;5048443;28;20031;-62
2021/01/27 11:55:28;;;;;;;21.20;6.43;;;24.30;83.80;;;;;;5049031;28;20016;-59
2021/01/27 11:57:56;;;;;;;16.65;5.68;;;24.30;83.70;;;;;;5048127;28;20068;-61
2021/01/27 12:00:24;;;;;;;13.40;5.25;;;24.30;83.70;;;;;;5044789;28;20124;-60
2021/01/27 12:02:51;;;;;;;13.52;5.50;;;24.30;83.60;;;;;;5048288;28;20434;-57
2021/01/27 12:05:19;;;;;;;15.15;5.75;;;24.30;83.60;;;;;;5049370;28;20033;-62
2021/01/27 12:07:47;;;;;;;16.17;5.18;;;24.30;83.70;;;;;;5049092;28;20029;-62
2021/01/27 12:10:15;;;;;;;14.80;5.60;;;24.30;83.40;;;;;;5044783;28;20075;-56
2021/01/27 12:12:43;;;;;;;12.27;4.53;;;24.30;83.20;;;;;;5049811;28;20418;-63
2021/01/27 12:15:10;;;;;;;12.88;4.70;;;24.30;83.20;;;;;;5052090;28;20025;-62
2021/01/27 12:17:38;;;;;;;14.70;5.00;;;24.30;83.20;;;;;;5052248;28;20380;-65
2021/01/27 12:20:06;;;;;;;12.55;4.68;;;24.30;83.20;;;;;;5050885;28;20036;-66
2021/01/27 12:22:34;;;;;;;13.05;4.82;;;24.20;83.10;;;;;;5052249;28;20049;-64
2021/01/27 12:25:01;;;;;;;13.73;5.30;;;24.20;83.20;;;;;;5051916;28;20029;-62
2021/01/27 12:27:28;;;;;;;12.82;5.20;;;24.20;83.20;;;;;;5051900;28;20069;-59
2021/01/27 12:29:56;;;;;;;13.27;4.25;;;24.20;83.20;;;;;;5051917;28;20104;-57
2021/01/27 12:32:23;;;;;;;15.15;4.57;;;24.20;83.20;;;;;;5051979;28;20555;-59
2021/01/27 12:34:50;;;;;;;13.07;4.05;;;24.10;83.20;;;;;;5051280;28;20029;-56
2021/01/27 12:37:18;;;;;;;12.52;4.20;;;24.10;83.80;;;;;;5051305;28;20029;-56
2021/01/27 12:39:46;;;;;;;11.45;3.90;;;24.10;83.20;;;;;;5051937;28;20025;-60
2021/01/27 12:42:13;;;;;;;11.35;3.95;;;24.10;83.20;;;;;;5051813;28;20025;-56
2021/01/27 12:44:42;;;;;;;12.00;4.28;;;24.10;83.20;;;;;;5051646;28;20392;-60
2021/01/27 12:47:11;;;;;;;9.90;4.00;;;24.10;83.10;;;;;;5051811;28;20025;-60
2021/01/27 12:49:38;;;;;;;14.70;4.43;;;24.10;83.10;;;;;;5051660;28;20423;-61
2021/01/27 12:52:07;;;;;;;11.57;4.10;;;24.00;83.10;;;;;;5051749;28;20121;-61
2021/01/27 12:54:34;;;;;;;13.30;4.80;;;24.00;83.10;;;;;;5051436;28;20031;-62
2021/01/27 12:57:04;;;;;;;10.50;3.83;;;24.00;83.10;;;;;;5052035;28;20032;-62
2021/01/27 12:59:32;;;;;;;10.23;4.10;;;23.90;83.00;;;;;;5051507;28;20042;-60
2021/01/27 13:01:59;;;;;;;6.40;3.10;;;23.90;83.20;;;;;;5051928;28;20021;-61
2021/01/27 13:04:27;;;;;;;9.63;3.83;;;23.90;83.40;;;;;;5051735;28;20426;-55
2021/01/27 13:14:23;;;;;;;13.18;3.78;;;23.80;83.20;;;;;;5049377;28;20090;-60
2021/01/27 13:16:51;;;;;;;10.95;4.05;;;23.80;83.30;;;;;;5035670;28;20049;-62
2021/01/27 13:19:19;;;;;;;10.35;4.05;;;23.80;83.30;;;;;;5035233;28;20036;-60
2021/01/27 13:21:46;;;;;;;8.25;3.25;;;23.80;83.40;;;;;;5035379;28;20025;-61
2021/01/27 13:24:13;;;;;;;7.45;3.38;;;23.80;83.40;;;;;;5035430;28;20022;-60
2021/01/27 13:26:41;;;;;;;6.68;3.10;;;23.80;83.40;;;;;;5043727;28;20036;-62
2021/01/27 13:29:08;;;;;;;10.50;3.33;;;23.80;83.50;;;;;;5052002;28;20025;-63
2021/01/27 13:31:36;;;;;;;10.95;3.83;;;23.80;83.20;;;;;;5052148;28;20401;-62
2021/01/27 23:23:23;;;;;;;12.55;3.63;;;23.70;79.80;;;;;;5848122;23;20045;-59